createdAt,value
2019-01-08T00:01:10.698Z,100.00
2019-01-08T00:03:39.119Z,100.00
2019-01-08T00:06:07.865Z,100.00
2019-01-08T00:08:36.365Z,100.00
2019-01-08T00:11:04.961Z,100.00
2019-01-08T00:13:33.666Z,100.00
2019-01-08T00:16:02.377Z,100.00
2019-01-08T00:18:30.762Z,100.00
2019-01-08T00:20:59.446Z,100.00
2019-01-08T00:23:28.180Z,100.00
2019-01-08T00:25:56.888Z,100.00
2019-01-08T00:28:25.314Z,100.00
2019-01-08T00:30:57.513Z,100.00
2019-01-08T00:33:26.290Z,100.00
2019-01-08T00:35:55.411Z,100.00
2019-01-08T00:38:24.159Z,100.00
2019-01-08T00:40:52.865Z,100.00
2019-01-08T00:43:21.590Z,100.00
2019-01-08T00:45:50.275Z,100.00
2019-01-08T00:48:19.664Z,100.00
2019-01-08T00:50:48.361Z,100.00
2019-01-08T00:53:16.850Z,100.00
2019-01-08T00:55:45.580Z,100.00
2019-01-08T00:58:13.968Z,100.00
2019-01-08T01:00:42.391Z,100.00
2019-01-08T01:03:10.811Z,100.00
2019-01-08T01:05:39.484Z,100.00
2019-01-08T01:08:08.206Z,100.00
2019-01-08T01:10:36.911Z,99.79
2019-01-08T01:13:05.344Z,100.00
2019-01-08T01:15:34.036Z,99.45
2019-01-08T01:18:02.479Z,99.23
2019-01-08T01:20:31.167Z,99.23
2019-01-08T01:22:59.576Z,99.63
2019-01-08T01:25:28.303Z,99.93
2019-01-08T01:27:56.729Z,99.50
2019-01-08T01:30:25.529Z,98.50
2019-01-08T01:32:54.196Z,98.69
2019-01-08T01:35:23.653Z,99.36
2019-01-08T01:37:52.389Z,99.56
2019-01-08T01:40:21.362Z,98.67
2019-01-08T01:42:50.051Z,97.67
2019-01-08T01:45:19.322Z,97.88
2019-01-08T01:47:48.109Z,97.00
2019-01-08T01:50:16.860Z,97.17
2019-01-08T01:52:45.563Z,97.39
2019-01-08T01:55:14.233Z,96.04
2019-01-08T01:57:42.673Z,95.08
2019-01-08T02:00:11.505Z,96.16
2019-01-08T02:02:40.216Z,94.93
2019-01-08T02:05:08.976Z,94.61
2019-01-08T02:07:37.663Z,95.16
2019-01-08T02:10:08.293Z,95.43
2019-01-08T02:12:37.043Z,96.14
2019-01-08T02:15:06.172Z,94.53
2019-01-08T02:17:34.565Z,94.49
2019-01-08T02:20:04.010Z,94.87
2019-01-08T02:22:32.709Z,94.85
2019-01-08T02:25:02.087Z,95.18
2019-01-08T02:27:31.587Z,94.97
2019-01-08T02:30:00.954Z,94.39
2019-01-08T02:32:29.854Z,94.33
2019-01-08T02:34:58.526Z,94.92
2019-01-08T02:37:27.283Z,95.32
2019-01-08T02:39:56.121Z,95.27
2019-01-08T02:42:24.816Z,95.43
2019-01-08T02:44:53.493Z,94.68
2019-01-08T02:47:22.213Z,93.61
2019-01-08T02:49:50.878Z,95.11
2019-01-08T02:52:19.562Z,95.50
2019-01-08T02:54:48.322Z,96.01
2019-01-08T02:57:17.690Z,95.75
2019-01-08T02:59:46.107Z,95.42
2019-01-08T03:02:14.839Z,95.47
2019-01-08T03:04:43.523Z,95.36
2019-01-08T03:07:11.910Z,95.63
2019-01-08T03:09:40.646Z,94.86
2019-01-08T03:12:10.315Z,94.55
2019-01-08T03:14:38.992Z,95.13
2019-01-08T03:17:07.688Z,94.18
2019-01-08T03:19:36.111Z,94.30
2019-01-08T03:22:04.627Z,94.12
2019-01-08T03:24:33.019Z,94.54
2019-01-08T03:27:01.844Z,95.08
2019-01-08T03:29:33.754Z,94.62
2019-01-08T03:32:01.106Z,94.51
2019-01-08T03:34:29.862Z,94.43
2019-01-08T03:36:58.646Z,94.68
2019-01-08T03:39:27.308Z,93.95
2019-01-08T03:41:56.019Z,93.62
2019-01-08T03:44:24.781Z,94.59
2019-01-08T03:46:53.522Z,95.37
2019-01-08T03:49:22.272Z,95.49
2019-01-08T03:51:50.962Z,95.02
2019-01-08T03:54:19.423Z,95.17
2019-01-08T03:56:48.130Z,95.22
2019-01-08T03:59:16.825Z,95.57
2019-01-08T04:01:45.566Z,95.90
2019-01-08T04:04:14.242Z,95.77
2019-01-08T04:06:42.914Z,96.42
2019-01-08T04:09:11.350Z,96.02
2019-01-08T04:11:39.755Z,95.80
2019-01-08T04:14:08.138Z,96.17
2019-01-08T04:16:36.938Z,96.22
2019-01-08T04:19:05.345Z,95.80
2019-01-08T04:21:34.183Z,96.03
2019-01-08T04:24:04.255Z,95.60
2019-01-08T04:26:32.990Z,95.83
2019-01-08T04:29:01.389Z,95.72
2019-01-08T04:31:30.090Z,96.26
2019-01-08T04:33:58.508Z,96.15
2019-01-08T04:36:27.190Z,95.48
2019-01-08T04:38:55.914Z,95.28
2019-01-08T04:41:24.742Z,95.68
2019-01-08T04:43:53.174Z,95.73
2019-01-08T04:46:21.875Z,95.76
2019-01-08T04:48:50.540Z,95.60
2019-01-08T04:51:19.247Z,95.16
2019-01-08T04:53:47.950Z,95.02
2019-01-08T04:56:16.645Z,94.60
2019-01-08T04:58:45.334Z,94.92
2019-01-08T05:01:14.027Z,94.86
2019-01-08T05:03:42.850Z,95.05
2019-01-08T05:06:11.535Z,94.52
2019-01-08T05:08:40.410Z,94.64
2019-01-08T05:11:08.842Z,94.70
2019-01-08T05:13:37.527Z,95.20
2019-01-08T05:16:06.287Z,94.51
2019-01-08T05:18:34.979Z,94.24
2019-01-08T05:21:03.467Z,93.72
2019-01-08T05:23:32.159Z,94.15
2019-01-08T05:26:00.893Z,94.10
2019-01-08T05:28:29.580Z,94.35
2019-01-08T05:30:58.280Z,94.25
2019-01-08T05:33:26.792Z,94.70
2019-01-08T05:35:55.669Z,94.98
2019-01-08T05:38:24.351Z,94.72
2019-01-08T05:40:53.254Z,93.86
2019-01-08T05:43:21.954Z,93.42
2019-01-08T05:45:50.367Z,93.91
2019-01-08T05:48:19.090Z,93.61
2019-01-08T05:50:47.870Z,94.28
2019-01-08T05:53:16.553Z,93.79
2019-01-08T05:55:45.265Z,94.16
2019-01-08T05:58:13.685Z,94.41
2019-01-08T06:00:43.186Z,94.16
2019-01-08T06:03:11.861Z,94.01
2019-01-08T06:05:40.572Z,94.14
2019-01-08T06:08:08.969Z,94.55
2019-01-08T06:10:37.418Z,94.39
2019-01-08T06:13:06.124Z,94.36
2019-01-08T06:15:34.841Z,94.62
2019-01-08T06:18:03.248Z,94.75
2019-01-08T06:20:32.551Z,93.99
2019-01-08T06:23:00.949Z,93.84
2019-01-08T06:25:29.657Z,93.94
2019-01-08T06:27:58.077Z,94.41
2019-01-08T06:30:26.967Z,94.67
2019-01-08T06:32:55.667Z,94.38
2019-01-08T06:35:24.422Z,94.88
2019-01-08T06:37:52.819Z,95.03
2019-01-08T06:40:21.535Z,95.12
2019-01-08T06:42:49.950Z,95.98
2019-01-08T06:45:18.382Z,95.59
2019-01-08T06:47:47.055Z,96.26
2019-01-08T06:50:15.658Z,96.24
2019-01-08T06:52:44.324Z,96.83
2019-01-08T06:55:13.085Z,96.74
2019-01-08T06:57:41.835Z,96.95
2019-01-08T07:00:11.659Z,96.89
2019-01-08T07:02:40.331Z,97.60
2019-01-08T07:05:08.868Z,97.25
2019-01-08T07:07:37.650Z,97.40
2019-01-08T07:10:07.854Z,97.56
2019-01-08T07:12:42.586Z,97.69
2019-01-08T07:15:11.005Z,97.58
2019-01-08T07:17:39.802Z,98.14
2019-01-08T07:20:08.747Z,98.32
2019-01-08T07:22:37.414Z,97.88
2019-01-08T07:25:06.469Z,97.73
2019-01-08T07:27:35.138Z,96.79
2019-01-08T07:30:03.604Z,96.59
2019-01-08T07:32:32.020Z,97.04
2019-01-08T07:35:00.640Z,97.83
2019-01-08T07:37:29.328Z,97.49
2019-01-08T07:39:57.741Z,98.26
2019-01-08T07:42:26.442Z,98.62
2019-01-08T07:44:55.130Z,98.72
2019-01-08T07:47:23.834Z,99.13
2019-01-08T07:49:52.515Z,98.95
2019-01-08T07:52:21.213Z,99.20
2019-01-08T07:54:49.602Z,99.14
2019-01-08T07:57:18.363Z,98.96
2019-01-08T07:59:47.045Z,98.88
2019-01-08T08:02:15.794Z,98.40
2019-01-08T08:04:47.779Z,98.33
2019-01-08T08:07:14.639Z,97.73
2019-01-08T08:09:43.345Z,97.81
2019-01-08T08:12:12.117Z,98.17
2019-01-08T08:14:40.541Z,97.95
2019-01-08T08:17:09.254Z,98.09
2019-01-08T08:19:37.916Z,97.34
2019-01-08T08:22:06.659Z,97.21
2019-01-08T08:24:35.114Z,97.03
2019-01-08T08:27:03.785Z,97.42
2019-01-08T08:29:32.499Z,97.28
2019-01-08T08:32:01.160Z,96.81
2019-01-08T08:34:29.886Z,96.88
2019-01-08T08:36:58.548Z,96.45
2019-01-08T08:39:27.331Z,96.64
2019-01-08T08:41:56.053Z,95.99
2019-01-08T08:44:24.465Z,95.91
2019-01-08T08:46:53.161Z,96.02
2019-01-08T08:49:21.867Z,96.20
2019-01-08T08:51:50.309Z,95.68
2019-01-08T08:54:18.965Z,95.30
2019-01-08T08:56:47.682Z,95.00
2019-01-08T08:59:16.417Z,94.25
2019-01-08T09:01:45.130Z,93.67
2019-01-08T09:04:13.528Z,93.18
2019-01-08T09:06:42.247Z,93.45
2019-01-08T09:09:10.648Z,93.26
2019-01-08T09:11:39.324Z,92.80
2019-01-08T09:14:08.108Z,91.40
2019-01-08T09:16:36.514Z,92.21
2019-01-08T09:19:05.231Z,92.23
2019-01-08T09:21:33.971Z,91.86
2019-01-08T09:24:02.375Z,91.26
2019-01-08T09:26:30.809Z,90.97
2019-01-08T09:28:59.209Z,91.14
2019-01-08T09:31:27.945Z,90.74
2019-01-08T09:33:56.615Z,90.56
2019-01-08T09:36:25.039Z,90.01
2019-01-08T09:38:53.883Z,90.78
2019-01-08T09:41:22.574Z,90.86
2019-01-08T09:43:51.319Z,91.58
2019-01-08T09:46:19.948Z,92.20
2019-01-08T09:48:48.380Z,92.53
2019-01-08T09:51:17.074Z,92.70
2019-01-08T09:53:45.781Z,92.37
2019-01-08T09:56:14.206Z,92.61
2019-01-08T09:58:42.909Z,92.86
2019-01-08T10:01:11.613Z,93.27
2019-01-08T10:03:40.311Z,93.63
2019-01-08T10:06:08.742Z,94.50
2019-01-08T10:08:37.159Z,95.38
2019-01-08T10:11:07.342Z,95.32
2019-01-08T10:13:35.872Z,95.05
2019-01-08T10:16:04.286Z,95.55
2019-01-08T10:18:32.993Z,96.03
2019-01-08T10:21:01.680Z,96.29
2019-01-08T10:23:30.245Z,95.69
2019-01-08T10:25:58.583Z,95.55
2019-01-08T10:28:26.998Z,96.25
2019-01-08T10:30:55.673Z,96.57
2019-01-08T10:33:24.112Z,95.72
2019-01-08T10:35:52.773Z,95.32
2019-01-08T10:38:21.189Z,94.91
2019-01-08T10:40:49.926Z,94.35
2019-01-08T10:43:18.602Z,94.25
2019-01-08T10:45:47.111Z,94.26
2019-01-08T10:48:15.782Z,93.66
2019-01-08T10:50:44.460Z,93.36
2019-01-08T10:53:12.891Z,92.98
2019-01-08T10:55:41.302Z,93.14
2019-01-08T10:58:09.735Z,91.91
2019-01-08T11:00:38.494Z,92.65
2019-01-08T11:03:07.255Z,91.72
2019-01-08T11:05:35.984Z,92.79
2019-01-08T11:08:04.408Z,92.50
2019-01-08T11:10:33.186Z,92.06
2019-01-08T11:13:01.850Z,91.16
2019-01-08T11:15:30.548Z,91.22
2019-01-08T11:17:59.215Z,91.40
2019-01-08T11:20:27.897Z,91.40
2019-01-08T11:22:56.603Z,91.80
2019-01-08T11:25:25.355Z,91.91
2019-01-08T11:27:55.579Z,91.48
2019-01-08T11:30:24.294Z,91.67
2019-01-08T11:32:54.833Z,91.73
2019-01-08T11:35:23.440Z,91.97
2019-01-08T11:37:52.139Z,92.18
2019-01-08T11:40:20.910Z,93.31
2019-01-08T11:42:49.318Z,92.44
2019-01-08T11:45:18.025Z,93.02
2019-01-08T11:47:46.805Z,93.43
2019-01-08T11:50:15.196Z,94.09
2019-01-08T11:52:44.000Z,93.77
2019-01-08T11:55:12.671Z,94.62
2019-01-08T11:57:41.106Z,93.71
2019-01-08T12:00:12.004Z,94.19
2019-01-08T12:02:47.712Z,95.24
2019-01-08T12:05:11.305Z,95.14
2019-01-08T12:07:39.711Z,95.83
2019-01-08T12:10:08.426Z,95.34
2019-01-08T12:12:37.149Z,95.25
2019-01-08T12:15:07.202Z,95.80
2019-01-08T12:17:35.626Z,95.41
2019-01-08T12:20:07.125Z,95.58
2019-01-08T12:22:40.805Z,95.57
2019-01-08T12:25:06.614Z,95.38
2019-01-08T12:27:35.322Z,95.50
2019-01-08T12:30:08.104Z,96.73
2019-01-08T12:32:36.837Z,97.37
2019-01-08T12:35:05.600Z,96.11
2019-01-08T12:37:34.272Z,96.70
2019-01-08T12:40:02.968Z,96.27
2019-01-08T12:42:34.678Z,95.50
2019-01-08T12:45:03.173Z,95.74
2019-01-08T12:47:31.685Z,96.45
2019-01-08T12:50:00.563Z,95.70
2019-01-08T12:52:29.326Z,94.31
2019-01-08T12:54:58.019Z,94.88
2019-01-08T12:57:26.431Z,94.37
2019-01-08T12:59:55.144Z,94.18
2019-01-08T13:02:23.571Z,94.32
2019-01-08T13:04:53.728Z,94.01
2019-01-08T13:07:22.162Z,94.85
2019-01-08T13:09:50.853Z,94.35
2019-01-08T13:12:19.276Z,95.92
2019-01-08T13:14:47.867Z,95.48
2019-01-08T13:17:16.527Z,93.46
2019-01-08T13:19:45.247Z,92.71
2019-01-08T13:22:13.701Z,91.47
2019-01-08T13:24:42.114Z,91.06
2019-01-08T13:27:10.795Z,92.02
2019-01-08T13:29:39.223Z,91.51
2019-01-08T13:32:07.961Z,92.18
2019-01-08T13:34:36.391Z,92.87
2019-01-08T13:37:04.924Z,93.06
2019-01-08T13:39:33.342Z,92.98
2019-01-08T13:42:02.028Z,93.15
2019-01-08T13:44:30.738Z,94.24
2019-01-08T13:46:59.418Z,93.39
2019-01-08T13:49:28.131Z,93.97
2019-01-08T13:51:56.806Z,93.61
2019-01-08T13:54:25.259Z,93.92
2019-01-08T13:56:53.975Z,92.94
2019-01-08T13:59:22.757Z,91.31
2019-01-08T14:01:51.525Z,89.70
2019-01-08T14:04:20.277Z,88.51
2019-01-08T14:06:48.952Z,90.82
2019-01-08T14:09:17.668Z,89.94
2019-01-08T14:11:46.133Z,89.78
2019-01-08T14:14:14.927Z,90.58
2019-01-08T14:16:43.607Z,91.10
2019-01-08T14:19:12.016Z,90.87
2019-01-08T14:21:40.446Z,91.57
2019-01-08T14:24:09.161Z,92.18
2019-01-08T14:26:37.636Z,92.02
2019-01-08T14:29:06.404Z,92.11
2019-01-08T14:31:35.081Z,91.16
2019-01-08T14:34:03.847Z,91.19
2019-01-08T14:36:33.504Z,89.96
2019-01-08T14:39:02.218Z,88.79
2019-01-08T14:41:30.952Z,89.31
2019-01-08T14:43:59.371Z,91.10
2019-01-08T14:46:27.810Z,91.04
2019-01-08T14:48:56.500Z,90.50
2019-01-08T14:51:26.168Z,90.10
2019-01-08T14:53:54.598Z,91.04
2019-01-08T14:56:23.016Z,91.56
2019-01-08T14:58:51.724Z,91.35
2019-01-08T15:01:20.469Z,90.54
2019-01-08T15:03:49.189Z,89.71
2019-01-08T15:06:17.862Z,89.23
2019-01-08T15:08:46.343Z,90.00
2019-01-08T15:11:14.847Z,90.38
2019-01-08T15:13:43.301Z,90.29
2019-01-08T15:16:12.012Z,89.86
2019-01-08T15:18:40.714Z,90.92
2019-01-08T15:21:09.170Z,91.04
2019-01-08T15:23:37.834Z,91.84
2019-01-08T15:26:06.626Z,91.30
2019-01-08T15:28:35.308Z,90.71
2019-01-08T15:31:04.020Z,90.91
2019-01-08T15:33:32.688Z,90.77
2019-01-08T15:36:01.103Z,90.26
2019-01-08T15:38:29.810Z,90.06
2019-01-08T15:40:58.502Z,89.81
2019-01-08T15:43:27.265Z,89.42
2019-01-08T15:45:55.670Z,89.49
2019-01-08T15:48:24.349Z,89.48
2019-01-08T15:50:53.221Z,88.57
2019-01-08T15:53:21.968Z,88.98
2019-01-08T15:55:50.648Z,88.82
2019-01-08T15:58:19.443Z,89.85
2019-01-08T16:00:48.219Z,89.66
2019-01-08T16:03:16.614Z,89.53
2019-01-08T16:05:45.012Z,89.50
2019-01-08T16:08:13.752Z,89.21
2019-01-08T16:10:42.529Z,88.72
2019-01-08T16:13:10.992Z,88.65
2019-01-08T16:15:39.682Z,88.01
2019-01-08T16:18:08.416Z,87.80
2019-01-08T16:20:36.847Z,87.57
2019-01-08T16:23:05.632Z,87.46
2019-01-08T16:25:34.253Z,87.65
2019-01-08T16:28:02.927Z,87.85
2019-01-08T16:30:31.710Z,86.72
2019-01-08T16:33:00.406Z,85.92
2019-01-08T16:35:29.120Z,86.02
2019-01-08T16:37:57.902Z,86.37
2019-01-08T16:40:26.618Z,86.93
2019-01-08T16:42:55.365Z,86.59
2019-01-08T16:45:24.067Z,86.77
2019-01-08T16:47:52.744Z,86.28
2019-01-08T16:50:21.577Z,85.10
2019-01-08T16:52:50.342Z,84.97
2019-01-08T16:55:19.683Z,85.01
2019-01-08T16:57:48.546Z,85.55
2019-01-08T17:00:17.364Z,85.40
2019-01-08T17:02:45.858Z,85.63
2019-01-08T17:05:14.514Z,84.98
2019-01-08T17:07:42.944Z,84.56
2019-01-08T17:10:11.702Z,85.04
2019-01-08T17:12:40.421Z,84.80
2019-01-08T17:15:09.281Z,82.89
2019-01-08T17:17:37.831Z,84.39
2019-01-08T17:20:07.662Z,84.23
2019-01-08T17:22:36.208Z,82.92
2019-01-08T17:25:05.702Z,82.61
2019-01-08T17:27:34.392Z,83.20
2019-01-08T17:30:03.185Z,83.49
2019-01-08T17:32:32.014Z,83.70
2019-01-08T17:35:00.739Z,80.93
2019-01-08T17:37:29.444Z,83.11
2019-01-08T17:39:58.815Z,82.83
2019-01-08T17:42:27.233Z,83.06
2019-01-08T17:44:55.660Z,82.50
2019-01-08T17:47:24.625Z,83.09
2019-01-08T17:49:53.410Z,82.47
2019-01-08T17:52:22.107Z,81.51
2019-01-08T17:54:51.402Z,81.80
2019-01-08T17:57:20.117Z,81.08
2019-01-08T17:59:48.873Z,82.20
2019-01-08T18:02:17.624Z,82.38
2019-01-08T18:04:46.294Z,80.62
2019-01-08T18:07:14.802Z,81.18
2019-01-08T18:09:43.508Z,82.07
2019-01-08T18:12:12.321Z,80.94
2019-01-08T18:14:41.009Z,79.89
2019-01-08T18:17:09.854Z,81.99
2019-01-08T18:19:38.618Z,81.14
2019-01-08T18:22:07.329Z,81.41
2019-01-08T18:24:36.069Z,81.16
2019-01-08T18:27:04.967Z,81.05
2019-01-08T18:29:33.370Z,80.67
2019-01-08T18:32:03.739Z,81.78
2019-01-08T18:34:32.342Z,80.81
2019-01-08T18:37:00.997Z,80.75
2019-01-08T18:39:29.414Z,81.58
2019-01-08T18:41:57.877Z,81.17
2019-01-08T18:44:26.277Z,82.61
2019-01-08T18:46:54.652Z,81.62
2019-01-08T18:49:23.396Z,81.27
2019-01-08T18:51:52.118Z,82.21
2019-01-08T18:54:20.834Z,81.05
2019-01-08T18:56:49.644Z,81.63
2019-01-08T18:59:18.952Z,81.11
2019-01-08T19:01:47.749Z,81.25
2019-01-08T19:04:16.531Z,80.86
2019-01-08T19:06:45.995Z,81.92
2019-01-08T19:09:26.154Z,82.11
2019-01-08T19:11:55.436Z,83.14
2019-01-08T19:14:27.181Z,85.64
2019-01-08T19:16:55.965Z,85.26
2019-01-08T19:19:24.734Z,87.45
2019-01-08T19:21:53.573Z,87.31
2019-01-08T19:24:22.534Z,88.79
2019-01-08T19:26:51.238Z,88.96
2019-01-08T19:29:20.024Z,90.06
2019-01-08T19:31:48.585Z,90.67
2019-01-08T19:34:17.347Z,91.25
2019-01-08T19:36:45.767Z,92.12
2019-01-08T19:39:14.485Z,93.65
2019-01-08T19:41:43.221Z,93.96
2019-01-08T19:44:11.939Z,93.79
2019-01-08T19:46:40.462Z,94.50
2019-01-08T19:49:08.863Z,94.42
2019-01-08T19:51:37.626Z,93.51
2019-01-08T19:54:06.417Z,92.75
2019-01-08T19:56:35.101Z,93.33
2019-01-08T19:59:03.822Z,92.53
2019-01-08T20:01:32.402Z,92.32
2019-01-08T20:04:01.150Z,92.26
2019-01-08T20:06:29.927Z,91.86
2019-01-08T20:08:58.820Z,91.95
2019-01-08T20:11:27.556Z,91.57
2019-01-08T20:13:56.303Z,91.64
2019-01-08T20:16:24.748Z,90.28
2019-01-08T20:18:53.558Z,88.93
2019-01-08T20:21:22.259Z,86.92
2019-01-08T20:23:50.763Z,87.74
2019-01-08T20:26:19.446Z,87.64
2019-01-08T20:28:48.121Z,86.69
2019-01-08T20:31:17.724Z,85.40
2019-01-08T20:33:46.498Z,85.41
2019-01-08T20:36:15.203Z,85.73
2019-01-08T20:38:43.887Z,85.23
2019-01-08T20:41:13.933Z,86.42
2019-01-08T20:43:42.945Z,86.59
2019-01-08T20:46:11.394Z,86.47
2019-01-08T20:48:40.108Z,85.46
2019-01-08T20:51:08.826Z,86.14
2019-01-08T20:53:37.244Z,85.73
2019-01-08T20:56:05.688Z,86.39
2019-01-08T20:58:34.128Z,87.52
2019-01-08T21:01:02.868Z,87.09
2019-01-08T21:03:31.390Z,88.36
2019-01-08T21:06:00.100Z,88.34
2019-01-08T21:08:28.818Z,88.17
2019-01-08T21:10:58.781Z,88.13
2019-01-08T21:13:27.212Z,88.45
2019-01-08T21:15:55.923Z,88.30
2019-01-08T21:18:24.304Z,87.68
2019-01-08T21:20:55.191Z,87.76
2019-01-08T21:23:23.926Z,88.07
2019-01-08T21:25:52.679Z,88.20
2019-01-08T21:28:21.359Z,87.96
2019-01-08T21:30:50.170Z,88.23
2019-01-08T21:33:18.875Z,88.13
2019-01-08T21:35:47.649Z,88.26
2019-01-08T21:38:16.369Z,88.62
2019-01-08T21:40:45.065Z,88.73
2019-01-08T21:43:13.775Z,88.67
2019-01-08T21:45:42.454Z,88.51
2019-01-08T21:48:11.135Z,88.46
2019-01-08T21:50:39.545Z,88.24
2019-01-08T21:53:08.266Z,88.49
2019-01-08T21:55:36.950Z,88.12
2019-01-08T21:58:05.616Z,88.03
2019-01-08T22:00:34.097Z,87.62
2019-01-08T22:03:02.885Z,88.25
2019-01-08T22:05:31.702Z,88.77
2019-01-08T22:08:00.744Z,88.88
2019-01-08T22:10:29.488Z,88.64
2019-01-08T22:12:58.182Z,88.85
2019-01-08T22:15:26.899Z,89.22
2019-01-08T22:17:55.696Z,89.50
2019-01-08T22:20:24.376Z,90.59
2019-01-08T22:22:53.133Z,90.59
2019-01-08T22:25:21.574Z,89.82
2019-01-08T22:27:50.293Z,89.73
2019-01-08T22:30:18.688Z,89.70
2019-01-08T22:32:47.409Z,89.07
2019-01-08T22:35:16.099Z,89.38
2019-01-08T22:37:44.847Z,89.10
2019-01-08T22:40:13.659Z,89.53
2019-01-08T22:42:42.475Z,89.76
2019-01-08T22:45:11.241Z,90.08
2019-01-08T22:47:39.954Z,90.18
2019-01-08T22:50:09.219Z,89.80
2019-01-08T22:52:38.076Z,90.13
2019-01-08T22:55:06.663Z,90.33
2019-01-08T22:57:35.831Z,90.13
2019-01-08T23:00:09.186Z,89.85
2019-01-08T23:02:38.758Z,89.90
2019-01-08T23:05:10.928Z,89.10
2019-01-08T23:07:37.978Z,90.32
2019-01-08T23:10:07.196Z,89.85
2019-01-08T23:12:36.080Z,89.13
2019-01-08T23:15:13.211Z,88.52
2019-01-08T23:17:41.670Z,88.44
2019-01-08T23:20:10.475Z,90.29
2019-01-08T23:22:39.230Z,91.89
2019-01-08T23:25:08.073Z,92.42
2019-01-08T23:27:37.313Z,93.20
2019-01-08T23:30:08.138Z,94.10
2019-01-08T23:32:36.894Z,95.21
2019-01-08T23:35:06.863Z,95.95
2019-01-08T23:37:35.612Z,96.12
2019-01-08T23:40:05.304Z,96.55
2019-01-08T23:42:44.105Z,96.70
2019-01-08T23:45:13.044Z,96.84
2019-01-08T23:47:41.843Z,97.26
2019-01-08T23:50:11.171Z,97.75
2019-01-08T23:53:05.960Z,97.59
2019-01-08T23:55:37.282Z,97.74
2019-01-08T23:58:06.981Z,97.41
